Time;durP1;ratioP1;P1;durP2;ratioP2;P2;SDS_P1;SDS_P2;PMS_P1;PMS_P2;Temp;Humidity;BMP_temperature;BMP_pressure;BME280_temperature;BME280_humidity;BME280_pressure;Samples;Min_cycle;Max_cycle;Signal;HPM_P1;HPM_P2
2023/12/06 00:01:35;;;;;;;30.55;16.90;;;;;;;;;;6096108;23;19998;-81
2023/12/06 00:04:00;;;;;;;33.33;17.25;;;;;;;;;;6096029;23;20002;-81
2023/12/06 00:06:26;;;;;;;36.83;18.38;;;;;;;;;;6122720;23;20062;-81
2023/12/06 00:08:54;;;;;;;31.85;17.15;;;;;;;;;;6096382;23;20006;-81
2023/12/06 00:11:19;;;;;;;32.58;16.80;;;;;;;;;;6096543;23;20016;-81
2023/12/06 00:13:46;;;;;;;28.40;14.35;;;;;;;;;;6096222;23;20033;-81
2023/12/06 00:16:11;;;;;;;36.33;19.05;;;;;;;;;;6096389;23;20343;-83
2023/12/06 00:18:37;;;;;;;33.00;17.80;;;;;;;;;;6122338;23;20123;-82
2023/12/06 00:21:03;;;;;;;36.28;20.13;;;;;;;;;;6095854;23;20033;-81
2023/12/06 00:23:28;;;;;;;34.85;20.27;;;;;;;;;;6096392;23;20036;-81
2023/12/06 00:25:54;;;;;;;37.80;20.90;;;;;;;;;;6096114;23;20005;-81
2023/12/06 00:28:19;;;;;;;38.13;20.00;;;;;;;;;;6122123;23;20461;-82
2023/12/06 00:30:45;;;;;;;41.22;23.33;;;;;;;;;;6123148;23;19990;-81
2023/12/06 00:33:10;;;;;;;34.53;18.52;;;;;;;;;;6095743;23;20001;-80
2023/12/06 00:35:35;;;;;;;37.67;21.73;;;;;;;;;;6096038;23;19994;-83
2023/12/06 00:38:01;;;;;;;35.17;18.50;;;;;;;;;;6122160;23;20383;-82
2023/12/06 00:40:26;;;;;;;35.03;19.08;;;;;;;;;;6122043;23;20006;-82
2023/12/06 00:42:51;;;;;;;30.35;16.25;;;;;;;;;;6096184;23;20002;-81
2023/12/06 00:45:16;;;;;;;25.20;14.00;;;;;;;;;;6095732;23;20050;-82
2023/12/06 00:47:42;;;;;;;30.00;14.32;;;;;;;;;;6122299;23;19998;-82
2023/12/06 00:50:07;;;;;;;25.67;13.65;;;;;;;;;;6096090;23;20450;-82
2023/12/06 00:52:33;;;;;;;25.17;15.23;;;;;;;;;;6121005;23;20005;-82
2023/12/06 00:54:58;;;;;;;30.27;14.13;;;;;;;;;;6095731;23;20426;-82
2023/12/06 00:57:23;;;;;;;29.60;15.45;;;;;;;;;;6095478;23;20350;-82
2023/12/06 00:59:48;;;;;;;22.15;13.05;;;;;;;;;;6095777;23;20005;-82
2023/12/06 01:02:14;;;;;;;28.33;16.45;;;;;;;;;;6095421;23;20002;-82
2023/12/06 01:04:39;;;;;;;35.42;18.98;;;;;;;;;;6088976;23;19998;-81
2023/12/06 01:07:06;;;;;;;27.75;15.63;;;;;;;;;;6065326;23;20118;-82
2023/12/06 01:09:31;;;;;;;38.75;20.95;;;;;;;;;;6065593;23;20391;-81
2023/12/06 01:11:59;;;;;;;31.45;16.80;;;;;;;;;;6068452;23;19999;-82
2023/12/06 01:14:24;;;;;;;27.33;14.23;;;;;;;;;;6065054;23;20030;-82
2023/12/06 01:16:50;;;;;;;30.17;15.88;;;;;;;;;;6064598;23;20009;-82
2023/12/06 01:19:16;;;;;;;26.90;14.43;;;;;;;;;;6088925;23;19998;-81
2023/12/06 01:21:41;;;;;;;25.35;14.98;;;;;;;;;;6065146;23;20002;-80
2023/12/06 01:24:07;;;;;;;26.17;14.00;;;;;;;;;;6088333;23;20002;-82
2023/12/06 01:26:32;;;;;;;27.95;15.52;;;;;;;;;;6067384;23;19994;-82
2023/12/06 01:28:59;;;;;;;26.88;14.65;;;;;;;;;;6065656;23;19999;-81
2023/12/06 01:31:24;;;;;;;29.67;16.40;;;;;;;;;;6065084;23;20022;-82
2023/12/06 01:33:49;;;;;;;30.52;15.80;;;;;;;;;;6088902;23;19998;-83
2023/12/06 01:36:15;;;;;;;30.73;15.88;;;;;;;;;;6087423;23;20009;-81
2023/12/06 01:38:40;;;;;;;26.75;12.27;;;;;;;;;;6071227;23;20010;-83
2023/12/06 01:41:05;;;;;;;27.73;15.00;;;;;;;;;;6095447;23;20457;-81
2023/12/06 01:43:31;;;;;;;29.52;16.17;;;;;;;;;;6122025;23;20004;-80
2023/12/06 01:45:57;;;;;;;31.20;16.58;;;;;;;;;;6100011;23;20005;-80
2023/12/06 01:48:23;;;;;;;30.75;16.05;;;;;;;;;;6100794;23;20030;-84
2023/12/06 01:50:49;;;;;;;26.95;14.73;;;;;;;;;;6096328;23;20025;-84
2023/12/06 01:53:14;;;;;;;32.65;15.80;;;;;;;;;;6095069;23;20085;-83
2023/12/06 01:55:41;;;;;;;24.23;12.90;;;;;;;;;;6121622;23;20401;-83
2023/12/06 01:58:06;;;;;;;33.55;16.63;;;;;;;;;;6121392;23;20002;-82
2023/12/06 02:00:32;;;;;;;33.47;15.85;;;;;;;;;;6121017;23;20006;-81
2023/12/06 02:02:58;;;;;;;34.67;17.42;;;;;;;;;;6094211;23;20085;-81
2023/12/06 02:05:23;;;;;;;35.70;17.70;;;;;;;;;;6094951;23;20002;-82
2023/12/06 02:07:49;;;;;;;35.70;17.48;;;;;;;;;;6094936;23;20465;-83
2023/12/06 02:10:15;;;;;;;29.48;15.45;;;;;;;;;;6121326;23;20052;-81
2023/12/06 02:12:40;;;;;;;25.30;14.80;;;;;;;;;;6121003;23;20077;-81
2023/12/06 02:15:07;;;;;;;31.80;16.02;;;;;;;;;;6120799;23;20391;-81
2023/12/06 02:17:33;;;;;;;30.05;17.02;;;;;;;;;;6095358;23;20026;-82
2023/12/06 02:19:58;;;;;;;27.35;15.00;;;;;;;;;;6120889;23;20422;-81
2023/12/06 02:22:24;;;;;;;32.35;17.05;;;;;;;;;;6094231;23;20002;-81
2023/12/06 02:24:51;;;;;;;30.45;15.85;;;;;;;;;;6094956;23;19994;-83
2023/12/06 02:27:17;;;;;;;31.55;15.93;;;;;;;;;;6120497;23;20367;-82
2023/12/06 02:29:43;;;;;;;32.42;17.20;;;;;;;;;;6095043;23;20017;-81
2023/12/06 02:32:08;;;;;;;34.90;16.92;;;;;;;;;;6094200;23;20002;-81
2023/12/06 02:34:35;;;;;;;38.60;18.83;;;;;;;;;;6094660;23;20320;-81
2023/12/06 02:37:01;;;;;;;38.42;17.33;;;;;;;;;;6120172;23;19998;-82
2023/12/06 02:39:28;;;;;;;37.53;19.02;;;;;;;;;;6120910;23;20044;-81
2023/12/06 02:41:53;;;;;;;37.38;17.50;;;;;;;;;;6120119;23;20021;-81
2023/12/06 02:44:18;;;;;;;34.50;16.75;;;;;;;;;;6058987;23;20499;-81
2023/12/06 02:46:44;;;;;;;35.70;15.77;;;;;;;;;;6058942;23;20007;-80
2023/12/06 02:49:10;;;;;;;36.35;19.67;;;;;;;;;;6059744;23;20021;-83
2023/12/06 02:51:35;;;;;;;31.92;14.65;;;;;;;;;;6035256;23;20002;-82
2023/12/06 02:54:00;;;;;;;33.92;17.08;;;;;;;;;;6058997;23;20006;-81
2023/12/06 02:56:25;;;;;;;35.28;17.42;;;;;;;;;;6035209;23;20139;-82
2023/12/06 02:58:51;;;;;;;26.92;13.82;;;;;;;;;;6035006;23;20003;-81
2023/12/06 03:01:16;;;;;;;22.52;11.05;;;;;;;;;;6059218;23;20007;-83
2023/12/06 03:03:41;;;;;;;36.33;17.13;;;;;;;;;;6035009;23;20510;-82
2023/12/06 03:06:07;;;;;;;26.80;12.95;;;;;;;;;;6035649;23;20131;-82
2023/12/06 03:08:32;;;;;;;31.05;15.73;;;;;;;;;;6059238;23;20012;-82
2023/12/06 03:10:58;;;;;;;28.73;15.13;;;;;;;;;;6059709;23;20018;-81
2023/12/06 03:13:24;;;;;;;27.48;14.05;;;;;;;;;;6058890;23;20465;-82
2023/12/06 03:15:49;;;;;;;34.90;17.38;;;;;;;;;;6087164;23;20331;-81
2023/12/06 03:18:14;;;;;;;35.30;18.17;;;;;;;;;;6095992;23;20002;-81
2023/12/06 03:20:39;;;;;;;33.70;15.80;;;;;;;;;;6096771;23;20137;-82
2023/12/06 03:23:06;;;;;;;34.03;17.02;;;;;;;;;;6096333;23;20631;-81
2023/12/06 03:25:32;;;;;;;29.90;13.55;;;;;;;;;;6122451;23;20005;-81
2023/12/06 03:27:57;;;;;;;35.50;19.00;;;;;;;;;;6122447;23;19998;-81
2023/12/06 03:30:23;;;;;;;33.80;15.80;;;;;;;;;;6096508;23;20076;-81
2023/12/06 03:32:49;;;;;;;29.63;14.75;;;;;;;;;;6096139;23;20056;-82
2023/12/06 03:35:15;;;;;;;37.33;17.70;;;;;;;;;;6122440;23;20012;-82
2023/12/06 03:37:40;;;;;;;28.30;13.00;;;;;;;;;;6095800;23;20033;-81
2023/12/06 03:40:05;;;;;;;39.05;18.00;;;;;;;;;;6122329;23;20006;-81
2023/12/06 03:42:32;;;;;;;41.03;19.60;;;;;;;;;;6096131;23;20632;-83
2023/12/06 03:44:57;;;;;;;31.30;16.17;;;;;;;;;;6096270;23;20089;-81
2023/12/06 03:47:22;;;;;;;31.52;15.23;;;;;;;;;;6095573;23;20374;-81
2023/12/06 03:49:48;;;;;;;31.13;15.85;;;;;;;;;;6122468;23;20022;-83
2023/12/06 03:52:13;;;;;;;35.17;16.70;;;;;;;;;;6095756;23;20005;-82
2023/12/06 03:54:38;;;;;;;34.13;17.00;;;;;;;;;;6122154;23;20386;-82
2023/12/06 03:57:04;;;;;;;37.00;17.30;;;;;;;;;;6096180;23;20042;-81
2023/12/06 03:59:29;;;;;;;31.92;15.38;;;;;;;;;;6096040;23;20005;-81
2023/12/06 04:01:54;;;;;;;37.75;16.08;;;;;;;;;;6121835;23;20454;-81
2023/12/06 04:04:20;;;;;;;32.13;15.18;;;;;;;;;;6122443;23;20453;-81
2023/12/06 04:06:45;;;;;;;34.72;17.90;;;;;;;;;;6096491;23;20339;-81
2023/12/06 04:09:11;;;;;;;34.83;17.40;;;;;;;;;;6096511;23;20449;-83
2023/12/06 04:11:36;;;;;;;34.05;16.58;;;;;;;;;;6101549;23;19994;-81
2023/12/06 04:14:02;;;;;;;35.03;17.52;;;;;;;;;;6104087;23;19998;-82
2023/12/06 04:16:27;;;;;;;32.00;15.55;;;;;;;;;;6098534;23;20025;-81
2023/12/06 04:18:53;;;;;;;37.08;16.02;;;;;;;;;;6095903;23;20002;-81
2023/12/06 04:21:19;;;;;;;37.30;17.02;;;;;;;;;;6121653;23;20374;-82
2023/12/06 04:23:44;;;;;;;33.97;16.45;;;;;;;;;;6095237;23;20061;-80
2023/12/06 04:26:09;;;;;;;31.90;15.68;;;;;;;;;;6095639;23;20427;-81
2023/12/06 04:28:34;;;;;;;34.13;16.23;;;;;;;;;;6096017;23;20408;-82
2023/12/06 04:31:00;;;;;;;32.83;15.50;;;;;;;;;;6095685;23;20454;-82
2023/12/06 04:33:25;;;;;;;32.08;14.15;;;;;;;;;;6121534;23;20013;-81
2023/12/06 04:35:50;;;;;;;28.73;13.15;;;;;;;;;;6095859;23;20009;-81
2023/12/06 04:38:16;;;;;;;35.90;17.15;;;;;;;;;;6095966;23;20025;-82
2023/12/06 04:40:41;;;;;;;36.45;17.67;;;;;;;;;;6095597;23;20120;-81
2023/12/06 04:43:06;;;;;;;40.38;16.05;;;;;;;;;;6095179;23;20457;-80
2023/12/06 04:45:32;;;;;;;34.35;16.20;;;;;;;;;;6095852;23;20002;-82
2023/12/06 04:47:57;;;;;;;30.20;13.45;;;;;;;;;;6095468;23;20002;-82
2023/12/06 04:50:23;;;;;;;28.35;14.32;;;;;;;;;;6096063;23;19998;-83
2023/12/06 04:52:48;;;;;;;30.85;16.05;;;;;;;;;;6095367;23;20509;-81
2023/12/06 04:55:14;;;;;;;28.75;15.00;;;;;;;;;;6121425;23;20081;-81
2023/12/06 04:57:39;;;;;;;24.60;13.00;;;;;;;;;;6121782;23;20073;-81
2023/12/06 05:00:07;;;;;;;31.52;15.32;;;;;;;;;;6095282;23;20376;-80
2023/12/06 05:02:33;;;;;;;34.70;15.05;;;;;;;;;;6095496;23;20006;-80
2023/12/06 05:04:58;;;;;;;32.50;15.73;;;;;;;;;;6121356;23;20080;-81
2023/12/06 05:07:23;;;;;;;25.10;12.23;;;;;;;;;;6095363;23;19998;-81
2023/12/06 05:09:49;;;;;;;32.60;16.23;;;;;;;;;;6121495;23;20002;-80
2023/12/06 05:12:15;;;;;;;27.25;12.75;;;;;;;;;;6121988;23;20022;-81
2023/12/06 05:14:41;;;;;;;29.05;13.82;;;;;;;;;;6120965;23;20065;-81
2023/12/06 05:17:06;;;;;;;26.92;13.35;;;;;;;;;;6095268;23;20006;-81
2023/12/06 05:19:31;;;;;;;31.67;15.52;;;;;;;;;;6094654;23;20010;-81
2023/12/06 05:21:57;;;;;;;30.08;15.90;;;;;;;;;;6121148;23;20059;-81
2023/12/06 05:24:22;;;;;;;27.27;14.18;;;;;;;;;;6120698;23;19997;-80
2023/12/06 05:26:47;;;;;;;27.73;13.50;;;;;;;;;;6095038;23;20004;-81
2023/12/06 05:29:12;;;;;;;33.00;14.93;;;;;;;;;;6121349;23;19998;-80
2023/12/06 05:31:38;;;;;;;32.42;15.57;;;;;;;;;;6094768;23;20002;-80
2023/12/06 05:34:04;;;;;;;36.80;20.52;;;;;;;;;;6094798;23;20444;-81
2023/12/06 05:36:29;;;;;;;30.83;17.15;;;;;;;;;;6095269;23;20462;-82
2023/12/06 05:38:54;;;;;;;31.65;16.33;;;;;;;;;;6094320;23;20327;-81
2023/12/06 05:41:20;;;;;;;27.48;13.77;;;;;;;;;;6120965;23;20014;-82
2023/12/06 05:43:45;;;;;;;29.88;14.00;;;;;;;;;;6120880;23;19998;-83
2023/12/06 05:46:10;;;;;;;30.48;16.02;;;;;;;;;;6121401;23;20489;-80
2023/12/06 05:48:35;;;;;;;27.88;15.13;;;;;;;;;;6094977;23;20383;-82
2023/12/06 05:51:01;;;;;;;30.08;15.15;;;;;;;;;;6095378;23;20009;-81
2023/12/06 05:53:26;;;;;;;27.70;14.45;;;;;;;;;;6095026;23;20081;-81
2023/12/06 05:55:51;;;;;;;27.80;14.45;;;;;;;;;;6094846;23;20002;-81
2023/12/06 05:58:17;;;;;;;23.20;12.80;;;;;;;;;;6094615;23;20088;-81
2023/12/06 06:00:42;;;;;;;23.17;13.38;;;;;;;;;;6120041;23;20016;-80
2023/12/06 06:03:07;;;;;;;22.98;12.57;;;;;;;;;;6120557;23;20005;-81
2023/12/06 06:05:33;;;;;;;23.95;13.02;;;;;;;;;;6094672;23;20049;-82
2023/12/06 06:07:59;;;;;;;22.50;12.60;;;;;;;;;;6071267;23;20127;-80
2023/12/06 06:10:25;;;;;;;32.30;16.23;;;;;;;;;;6094809;23;19998;-81
2023/12/06 06:12:50;;;;;;;23.15;11.32;;;;;;;;;;6120614;23;20286;-80
2023/12/06 06:15:15;;;;;;;23.77;11.73;;;;;;;;;;6094215;23;20340;-82
2023/12/06 06:17:40;;;;;;;26.73;11.35;;;;;;;;;;6094717;23;20084;-81
2023/12/06 06:20:06;;;;;;;38.05;18.83;;;;;;;;;;6094467;23;20028;-80
2023/12/06 06:22:31;;;;;;;39.40;21.00;;;;;;;;;;6119780;23;20002;-81
2023/12/06 06:24:57;;;;;;;39.08;20.63;;;;;;;;;;6094884;23;19998;-82
2023/12/06 06:27:22;;;;;;;27.58;14.80;;;;;;;;;;6120700;23;20375;-81
2023/12/06 06:29:47;;;;;;;29.70;14.82;;;;;;;;;;6094892;23;20077;-82
2023/12/06 06:32:13;;;;;;;37.20;18.77;;;;;;;;;;6094584;23;20002;-81
2023/12/06 06:34:39;;;;;;;32.63;16.73;;;;;;;;;;6120734;23;20426;-82
2023/12/06 06:37:04;;;;;;;29.08;15.38;;;;;;;;;;6122893;23;20025;-81
2023/12/06 06:39:30;;;;;;;31.30;15.63;;;;;;;;;;6128140;23;20054;-83
2023/12/06 06:41:55;;;;;;;29.80;15.70;;;;;;;;;;6097123;23;20543;-81
2023/12/06 06:44:20;;;;;;;28.42;15.15;;;;;;;;;;6094359;23;20013;-81
2023/12/06 06:46:46;;;;;;;32.28;16.55;;;;;;;;;;6091946;23;20001;-82
2023/12/06 06:49:11;;;;;;;28.00;14.90;;;;;;;;;;6094929;23;19998;-81
2023/12/06 06:51:37;;;;;;;34.03;17.67;;;;;;;;;;6094930;23;20081;-82
2023/12/06 06:54:03;;;;;;;30.60;16.25;;;;;;;;;;6093637;23;20077;-84
2023/12/06 06:56:28;;;;;;;34.38;18.10;;;;;;;;;;6094708;23;19998;-84
2023/12/06 06:58:54;;;;;;;36.40;17.52;;;;;;;;;;6121368;23;20033;-83
2023/12/06 07:01:19;;;;;;;39.00;20.48;;;;;;;;;;6095511;23;20006;-81
2023/12/06 07:03:44;;;;;;;32.20;17.90;;;;;;;;;;6093983;23;20001;-82
2023/12/06 07:06:09;;;;;;;38.17;21.27;;;;;;;;;;6096145;23;20005;-82
2023/12/06 07:08:35;;;;;;;38.58;17.88;;;;;;;;;;6094926;23;19998;-82
2023/12/06 07:11:00;;;;;;;30.35;16.20;;;;;;;;;;6095457;23;20002;-83
2023/12/06 07:13:26;;;;;;;29.92;15.60;;;;;;;;;;6094845;23;20010;-82
2023/12/06 07:15:51;;;;;;;32.08;17.60;;;;;;;;;;6094318;23;20501;-82
2023/12/06 07:18:16;;;;;;;30.67;16.02;;;;;;;;;;6094911;23;20382;-82
2023/12/06 07:20:42;;;;;;;31.75;15.35;;;;;;;;;;6095084;23;20417;-83
2023/12/06 07:23:08;;;;;;;30.55;15.77;;;;;;;;;;6071048;23;20089;-83
2023/12/06 07:25:33;;;;;;;36.03;17.48;;;;;;;;;;6095033;23;20012;-83
2023/12/06 07:27:58;;;;;;;43.80;21.70;;;;;;;;;;6095050;23;20002;-84
2023/12/06 07:30:24;;;;;;;32.95;15.95;;;;;;;;;;6120853;23;20312;-84
2023/12/06 07:32:49;;;;;;;34.47;16.33;;;;;;;;;;6094802;23;20010;-84
2023/12/06 07:35:14;;;;;;;29.67;16.55;;;;;;;;;;6094434;23;20005;-84
2023/12/06 07:37:40;;;;;;;34.72;17.50;;;;;;;;;;6095459;23;19998;-84
2023/12/06 07:40:09;;;;;;;34.15;18.05;;;;;;;;;;6094989;23;20031;-84
2023/12/06 07:42:34;;;;;;;31.98;15.07;;;;;;;;;;6095471;23;20021;-85
2023/12/06 07:45:00;;;;;;;43.08;21.58;;;;;;;;;;6120943;23;20308;-83
2023/12/06 07:47:25;;;;;;;44.28;21.52;;;;;;;;;;6095018;23;20338;-83
2023/12/06 07:49:51;;;;;;;36.42;21.02;;;;;;;;;;6094504;23;20454;-84
2023/12/06 07:52:17;;;;;;;36.25;19.80;;;;;;;;;;6094808;23;20466;-85
2023/12/06 07:54:43;;;;;;;34.92;16.73;;;;;;;;;;6120228;23;20426;-83
2023/12/06 07:57:08;;;;;;;33.47;16.40;;;;;;;;;;6120448;23;19994;-83
2023/12/06 07:59:34;;;;;;;46.30;21.90;;;;;;;;;;6095081;23;19998;-83
2023/12/06 08:01:59;;;;;;;56.80;28.85;;;;;;;;;;6096387;23;20013;-84
2023/12/06 08:04:24;;;;;;;39.72;21.85;;;;;;;;;;6122039;23;20001;-84
2023/12/06 08:06:50;;;;;;;32.88;17.58;;;;;;;;;;6097596;23;20121;-83
2023/12/06 08:09:17;;;;;;;44.90;22.75;;;;;;;;;;6097646;23;20009;-83
2023/12/06 08:11:42;;;;;;;36.65;18.67;;;;;;;;;;6096758;23;19998;-84
2023/12/06 08:14:08;;;;;;;32.45;15.68;;;;;;;;;;6122237;23;20497;-83
2023/12/06 08:16:33;;;;;;;34.13;16.83;;;;;;;;;;6096054;23;20005;-84
2023/12/06 08:18:58;;;;;;;33.80;17.63;;;;;;;;;;6095951;23;20086;-83
2023/12/06 08:21:24;;;;;;;33.13;15.90;;;;;;;;;;6121980;23;20315;-84
2023/12/06 08:23:49;;;;;;;43.10;19.63;;;;;;;;;;6121901;23;20037;-83
2023/12/06 08:26:15;;;;;;;36.08;19.33;;;;;;;;;;6096457;23;20002;-83
2023/12/06 08:28:40;;;;;;;44.60;22.73;;;;;;;;;;6096131;23;20081;-83
2023/12/06 08:31:05;;;;;;;37.60;18.67;;;;;;;;;;6096331;23;19998;-82
2023/12/06 08:33:31;;;;;;;35.90;17.60;;;;;;;;;;6122259;23;19998;-83
2023/12/06 08:35:56;;;;;;;41.13;20.05;;;;;;;;;;6096406;23;20009;-82
2023/12/06 08:38:21;;;;;;;35.88;18.50;;;;;;;;;;6122549;23;20005;-83
2023/12/06 08:40:47;;;;;;;36.80;21.10;;;;;;;;;;6121967;23;20455;-83
2023/12/06 08:43:12;;;;;;;42.40;24.05;;;;;;;;;;6096400;23;20458;-83
2023/12/06 08:45:37;;;;;;;36.83;19.50;;;;;;;;;;6096088;23;20006;-82
2023/12/06 08:48:04;;;;;;;44.80;23.13;;;;;;;;;;6121534;23;19998;-82
2023/12/06 08:50:29;;;;;;;47.25;24.52;;;;;;;;;;6123285;23;20049;-83
2023/12/06 08:52:54;;;;;;;60.40;31.80;;;;;;;;;;6095737;23;20386;-84
2023/12/06 08:55:20;;;;;;;42.40;22.15;;;;;;;;;;6121124;23;20302;-82
2023/12/06 08:57:45;;;;;;;62.80;32.42;;;;;;;;;;6096138;23;20013;-82
2023/12/06 09:00:12;;;;;;;79.32;38.88;;;;;;;;;;6101078;23;20013;-83
2023/12/06 09:02:38;;;;;;;107.13;50.40;;;;;;;;;;6100702;23;20056;-82
2023/12/06 09:05:04;;;;;;;42.45;22.42;;;;;;;;;;6096674;23;20002;-81
2023/12/06 09:07:29;;;;;;;49.80;25.77;;;;;;;;;;6095752;23;20438;-83
2023/12/06 09:09:54;;;;;;;48.38;24.80;;;;;;;;;;6096431;23;20022;-82
2023/12/06 09:12:21;;;;;;;33.55;17.80;;;;;;;;;;6095187;23;20082;-82
2023/12/06 09:14:46;;;;;;;31.20;16.23;;;;;;;;;;6095122;23;20036;-83
2023/12/06 09:17:11;;;;;;;37.90;19.23;;;;;;;;;;6121914;23;20065;-83
2023/12/06 09:19:37;;;;;;;55.65;26.98;;;;;;;;;;6095790;23;20477;-83
2023/12/06 09:22:03;;;;;;;32.65;16.35;;;;;;;;;;6122485;23;20469;-82
2023/12/06 09:24:28;;;;;;;32.15;14.23;;;;;;;;;;6095819;23;20489;-83
2023/12/06 09:26:53;;;;;;;40.83;20.85;;;;;;;;;;6094605;23;19994;-82
2023/12/06 09:29:19;;;;;;;34.92;18.23;;;;;;;;;;6095330;23;20061;-83
2023/12/06 09:31:44;;;;;;;46.58;23.52;;;;;;;;;;6095168;23;20012;-83
2023/12/06 09:34:09;;;;;;;36.53;18.45;;;;;;;;;;6120322;23;20446;-84
2023/12/06 09:36:35;;;;;;;35.50;17.23;;;;;;;;;;6071125;23;20009;-83
2023/12/06 09:39:00;;;;;;;37.85;20.67;;;;;;;;;;6095655;23;20609;-82
2023/12/06 09:41:28;;;;;;;32.70;17.00;;;;;;;;;;6095423;23;20026;-82
2023/12/06 09:43:53;;;;;;;32.97;17.48;;;;;;;;;;6095704;23;20065;-82
2023/12/06 09:46:19;;;;;;;25.48;13.65;;;;;;;;;;6095670;23;20002;-82
2023/12/06 09:48:47;;;;;;;28.85;15.15;;;;;;;;;;6095712;23;20461;-82
2023/12/06 09:51:15;;;;;;;25.42;14.60;;;;;;;;;;6095208;23;20018;-82
2023/12/06 09:53:42;;;;;;;25.33;13.40;;;;;;;;;;6121995;23;20431;-81
2023/12/06 09:56:08;;;;;;;27.15;14.23;;;;;;;;;;6095355;23;20386;-83
2023/12/06 09:58:34;;;;;;;29.25;16.02;;;;;;;;;;6095513;23;20012;-82
2023/12/06 10:00:59;;;;;;;25.92;14.30;;;;;;;;;;6121010;23;20006;-82
2023/12/06 10:03:25;;;;;;;23.38;12.88;;;;;;;;;;6121050;23;19998;-82
2023/12/06 10:05:58;;;;;;;22.13;11.20;;;;;;;;;;6095793;23;20002;-82
2023/12/06 10:08:24;;;;;;;22.52;11.98;;;;;;;;;;6096204;23;20005;-81
2023/12/06 10:10:58;;;;;;;17.52;10.00;;;;;;;;;;6096584;23;19998;-83
2023/12/06 10:13:30;;;;;;;17.25;10.05;;;;;;;;;;6121508;23;20032;-83
2023/12/06 10:15:55;;;;;;;21.02;13.93;;;;;;;;;;6093782;23;20343;-83
2023/12/06 10:18:24;;;;;;;25.00;14.75;;;;;;;;;;6095120;23;20005;-83
2023/12/06 10:20:50;;;;;;;22.00;12.10;;;;;;;;;;6121160;23;20117;-82
2023/12/06 10:23:21;;;;;;;29.65;19.10;;;;;;;;;;6095340;23;20415;-84
2023/12/06 10:25:50;;;;;;;18.73;11.02;;;;;;;;;;6094585;23;20006;-82
2023/12/06 10:28:17;;;;;;;21.95;12.55;;;;;;;;;;6115974;23;19994;-82
2023/12/06 10:30:43;;;;;;;27.63;17.50;;;;;;;;;;6094962;23;20076;-82
2023/12/06 10:33:09;;;;;;;24.00;14.48;;;;;;;;;;6095083;23;20033;-82
2023/12/06 10:35:35;;;;;;;20.55;10.73;;;;;;;;;;6120994;23;20093;-80
2023/12/06 10:38:01;;;;;;;32.60;18.30;;;;;;;;;;6094264;23;20457;-82
2023/12/06 10:40:28;;;;;;;40.38;24.48;;;;;;;;;;6094440;23;20469;-82
2023/12/06 10:42:57;;;;;;;22.48;13.88;;;;;;;;;;6094031;23;20009;-82
2023/12/06 10:45:22;;;;;;;28.77;17.03;;;;;;;;;;6093596;23;20054;-83
2023/12/06 10:47:49;;;;;;;24.98;15.88;;;;;;;;;;6119430;23;20704;-83
2023/12/06 10:50:15;;;;;;;16.75;11.45;;;;;;;;;;6094518;23;20081;-83
2023/12/06 10:52:40;;;;;;;23.42;14.35;;;;;;;;;;6094652;23;20010;-82
2023/12/06 10:55:06;;;;;;;23.77;15.02;;;;;;;;;;6094079;23;20390;-82
2023/12/06 10:57:32;;;;;;;30.75;19.60;;;;;;;;;;6120101;23;20032;-83
2023/12/06 10:59:58;;;;;;;28.38;17.30;;;;;;;;;;6094762;23;20010;-83
2023/12/06 11:02:23;;;;;;;19.80;12.98;;;;;;;;;;6094158;23;20006;-83
2023/12/06 11:04:50;;;;;;;20.48;12.90;;;;;;;;;;6094366;23;20039;-83
2023/12/06 11:07:28;;;;;;;26.83;16.38;;;;;;;;;;6071046;23;20006;-83
2023/12/06 11:10:12;;;;;;;27.13;15.48;;;;;;;;;;6094955;23;20008;-83
2023/12/06 11:13:00;;;;;;;25.13;16.45;;;;;;;;;;6095070;23;20005;-82
2023/12/06 11:15:41;;;;;;;30.10;19.98;;;;;;;;;;6027701;23;20037;-83
2023/12/06 11:18:10;;;;;;;35.38;23.75;;;;;;;;;;6094485;23;20489;-84
2023/12/06 11:20:36;;;;;;;28.40;18.87;;;;;;;;;;6094408;23;20002;-83
2023/12/06 11:23:02;;;;;;;28.52;17.23;;;;;;;;;;6094503;23;20084;-83
2023/12/06 11:25:27;;;;;;;22.40;14.35;;;;;;;;;;6094567;23;20029;-84
2023/12/06 11:27:54;;;;;;;25.20;16.77;;;;;;;;;;6127204;23;20004;-84
2023/12/06 11:30:19;;;;;;;38.33;21.25;;;;;;;;;;6104970;23;20077;-83
2023/12/06 11:32:45;;;;;;;33.50;19.35;;;;;;;;;;6102936;23;20014;-84
2023/12/06 11:35:11;;;;;;;23.52;13.90;;;;;;;;;;6126104;23;20005;-84
2023/12/06 11:37:36;;;;;;;41.72;25.73;;;;;;;;;;6125816;23;20068;-84
2023/12/06 11:40:17;;;;;;;39.20;25.75;;;;;;;;;;6097134;23;20041;-84
2023/12/06 11:42:47;;;;;;;41.67;26.60;;;;;;;;;;6092126;23;20055;-83
2023/12/06 11:45:25;;;;;;;23.05;15.27;;;;;;;;;;6092035;23;20372;-84
2023/12/06 11:47:52;;;;;;;20.83;13.20;;;;;;;;;;6092321;23;20383;-84
2023/12/06 11:50:18;;;;;;;34.90;25.92;;;;;;;;;;6092337;23;20332;-85
2023/12/06 11:52:50;;;;;;;28.23;21.00;;;;;;;;;;6091711;23;20056;-84
2023/12/06 11:55:16;;;;;;;31.88;20.17;;;;;;;;;;6091211;23;20005;-83
2023/12/06 11:57:58;;;;;;;38.53;25.05;;;;;;;;;;6092267;23;20085;-83
2023/12/06 12:00:23;;;;;;;29.85;21.10;;;;;;;;;;6091881;23;20089;-83
2023/12/06 12:02:49;;;;;;;22.33;15.38;;;;;;;;;;6093471;23;20087;-83
2023/12/06 12:05:15;;;;;;;30.58;19.30;;;;;;;;;;6091681;23;20444;-83
2023/12/06 12:07:40;;;;;;;33.72;22.48;;;;;;;;;;6092176;23;20005;-83
2023/12/06 12:10:07;;;;;;;35.45;23.20;;;;;;;;;;6093364;23;20003;-85
2023/12/06 12:12:36;;;;;;;25.02;17.20;;;;;;;;;;6091693;23;20454;-85
2023/12/06 12:15:01;;;;;;;;;;;;;;;;;;6092244;23;20744;-83
2023/12/06 12:17:26;;;;;;;36.00;24.24;;;;;;;;;;6091972;23;19901;-83
2023/12/06 12:19:52;;;;;;;30.98;24.20;;;;;;;;;;6091559;23;20383;-83
2023/12/06 12:22:17;;;;;;;14.57;10.85;;;;;;;;;;6091359;23;20010;-84
2023/12/06 12:24:43;;;;;;;21.88;13.55;;;;;;;;;;6093603;23;20423;-84
2023/12/06 12:27:08;;;;;;;18.63;12.15;;;;;;;;;;6091568;23;20022;-85
2023/12/06 12:29:33;;;;;;;19.63;12.90;;;;;;;;;;6091807;23;20053;-85
2023/12/06 12:31:59;;;;;;;21.92;13.38;;;;;;;;;;6093497;23;19994;-85
2023/12/06 12:34:25;;;;;;;40.58;21.38;;;;;;;;;;6091677;23;20002;-86
2023/12/06 12:36:50;;;;;;;22.13;13.95;;;;;;;;;;6091820;23;20411;-86
2023/12/06 12:39:16;;;;;;;21.27;14.13;;;;;;;;;;6067731;23;20006;-83
2023/12/06 12:41:42;;;;;;;15.82;11.02;;;;;;;;;;6109053;23;20029;-82
2023/12/06 12:44:08;;;;;;;19.77;12.32;;;;;;;;;;6121868;23;20025;-84
2023/12/06 12:46:36;;;;;;;17.27;11.75;;;;;;;;;;6096172;23;20025;-84
2023/12/06 12:49:04;;;;;;;16.58;12.50;;;;;;;;;;6096176;23;20009;-83
2023/12/06 12:51:32;;;;;;;22.75;14.57;;;;;;;;;;6096711;23;20013;-85
2023/12/06 12:53:58;;;;;;;14.95;10.13;;;;;;;;;;6097002;23;20002;-83
2023/12/06 12:56:24;;;;;;;25.63;16.08;;;;;;;;;;6095728;23;20010;-83
2023/12/06 12:58:49;;;;;;;14.77;10.07;;;;;;;;;;6097091;23;20398;-84
2023/12/06 13:01:15;;;;;;;12.35;8.80;;;;;;;;;;6096942;23;20012;-84
2023/12/06 13:03:41;;;;;;;24.60;14.20;;;;;;;;;;6097542;23;20362;-83
2023/12/06 13:06:07;;;;;;;11.98;8.55;;;;;;;;;;6097660;23;20010;-84
2023/12/06 13:08:32;;;;;;;22.85;14.10;;;;;;;;;;6097160;23;20081;-83
2023/12/06 13:10:58;;;;;;;31.60;19.17;;;;;;;;;;6097207;23;20025;-84
2023/12/06 13:13:44;;;;;;;12.52;9.00;;;;;;;;;;6122748;23;19997;-83
2023/12/06 13:16:10;;;;;;;18.15;11.48;;;;;;;;;;6122167;23;20002;-83
2023/12/06 13:18:37;;;;;;;34.38;20.52;;;;;;;;;;6096540;23;20024;-84
2023/12/06 13:21:03;;;;;;;39.60;24.48;;;;;;;;;;6096942;23;20002;-84
2023/12/06 13:23:29;;;;;;;9.88;7.28;;;;;;;;;;6123010;23;20021;-84
2023/12/06 13:25:54;;;;;;;19.33;12.68;;;;;;;;;;6095705;23;19998;-84
2023/12/06 13:28:19;;;;;;;15.82;11.32;;;;;;;;;;6121960;23;20033;-83
2023/12/06 13:30:45;;;;;;;19.17;13.43;;;;;;;;;;6095469;23;20005;-82
2023/12/06 13:33:10;;;;;;;20.67;13.52;;;;;;;;;;6096647;23;20012;-84
2023/12/06 13:35:36;;;;;;;23.40;16.23;;;;;;;;;;6096997;23;20005;-84
2023/12/06 13:38:02;;;;;;;17.77;12.27;;;;;;;;;;6123150;23;20085;-82
2023/12/06 13:40:27;;;;;;;34.80;20.55;;;;;;;;;;6061455;23;20090;-83
2023/12/06 13:42:53;;;;;;;12.82;9.48;;;;;;;;;;6037921;23;20039;-84
2023/12/06 13:45:19;;;;;;;34.28;18.70;;;;;;;;;;6061979;23;20046;-83
2023/12/06 13:47:45;;;;;;;47.72;26.55;;;;;;;;;;6038921;23;20348;-84
2023/12/06 13:50:11;;;;;;;37.17;21.20;;;;;;;;;;6038320;23;20364;-83
2023/12/06 13:52:36;;;;;;;25.00;16.05;;;;;;;;;;6062098;23;20030;-84
2023/12/06 13:55:04;;;;;;;33.05;19.13;;;;;;;;;;6042280;23;20006;-85
2023/12/06 13:57:30;;;;;;;35.08;21.38;;;;;;;;;;6049731;23;20003;-83
2023/12/06 13:59:55;;;;;;;37.42;23.10;;;;;;;;;;6042536;23;20027;-85
2023/12/06 14:02:20;;;;;;;40.00;25.27;;;;;;;;;;6045808;23;20599;-84
2023/12/06 14:04:46;;;;;;;30.33;18.17;;;;;;;;;;6049569;23;19999;-82
2023/12/06 14:07:11;;;;;;;25.30;16.27;;;;;;;;;;6070208;23;20428;-85
2023/12/06 14:09:38;;;;;;;33.85;21.67;;;;;;;;;;6058505;23;20131;-84
2023/12/06 14:12:03;;;;;;;26.27;16.65;;;;;;;;;;6104763;23;20041;-84